Terminal Aerodrome Forecast
Issued by NWS Sterling, VA

Current Version | Previous Version | Graphics & Text | Print | Product List | Glossary On
Versions: 1 2 3 4 5 6 7 8 9 10 11 12
824
FTUS41 KLWX 051736
TAFMRB
TAF
KMRB 051736Z 0518/0618 31015G27KT P6SM SCT045
     FM052200 31010KT P6SM SKC
     FM060200 30005KT P6SM FEW250
     FM061300 20004KT P6SM SCT200=

USA.gov is the U.S. government's official web portal to all federal, state and local government web resources and services.